Time;durP1;ratioP1;P1;durP2;ratioP2;P2;SDS_P1;SDS_P2;PMS_P1;PMS_P2;Temp;Humidity;BMP_temperature;BMP_pressure;BME280_temperature;BME280_humidity;BME280_pressure;Samples;Min_cycle;Max_cycle;Signal;HPM_P1;HPM_P2
2021/09/03 00:00:05;;;;;;;9.20;4.82;;;15.00;99.90;;;;;;5051326;28;20045;-84
2021/09/03 00:02:32;;;;;;;7.45;4.60;;;14.90;99.90;;;;;;5053926;28;20214;-85
2021/09/03 00:04:59;;;;;;;7.57;4.45;;;14.90;99.90;;;;;;5034503;28;20052;-85
2021/09/03 00:07:26;;;;;;;8.02;4.97;;;14.80;99.90;;;;;;5034419;28;20053;-85
2021/09/03 00:09:54;;;;;;;11.52;5.28;;;14.80;99.90;;;;;;5034365;28;20408;-84
2021/09/03 00:12:22;;;;;;;8.13;4.78;;;14.70;99.90;;;;;;5034266;28;20045;-85
2021/09/03 00:14:50;;;;;;;6.68;4.32;;;14.70;99.90;;;;;;5052752;28;20045;-84
2021/09/03 00:17:17;;;;;;;7.28;4.63;;;14.60;99.90;;;;;;5054142;28;20059;-84
2021/09/03 00:19:44;;;;;;;8.88;4.82;;;14.60;99.90;;;;;;5053998;28;20041;-85
2021/09/03 00:22:11;;;;;;;7.72;4.43;;;14.60;99.90;;;;;;5054044;28;20135;-85
2021/09/03 00:24:38;;;;;;;7.57;4.72;;;14.60;99.90;;;;;;5048950;28;20041;-85
2021/09/03 00:27:07;;;;;;;7.15;4.22;;;14.50;99.90;;;;;;5040449;28;20052;-83
2021/09/03 00:29:34;;;;;;;8.20;5.05;;;14.50;99.90;;;;;;5038300;28;20411;-85
2021/09/03 00:32:01;;;;;;;8.35;4.80;;;14.50;99.90;;;;;;5047695;28;20055;-85
2021/09/03 00:34:28;;;;;;;7.78;4.38;;;14.50;99.90;;;;;;5038916;28;20048;-86
2021/09/03 00:36:55;;;;;;;7.25;4.30;;;14.50;99.90;;;;;;5033839;28;20049;-85
2021/09/03 00:39:22;;;;;;;8.18;4.88;;;14.50;99.90;;;;;;5033734;28;20053;-84
2021/09/03 00:41:49;;;;;;;7.68;4.78;;;14.50;99.90;;;;;;5033641;28;20053;-84
2021/09/03 00:44:18;;;;;;;9.55;5.07;;;14.50;99.90;;;;;;5045044;28;20048;-85
2021/09/03 00:46:45;;;;;;;7.10;4.82;;;14.40;99.90;;;;;;5053375;28;20136;-86
2021/09/03 00:49:12;;;;;;;7.22;4.80;;;14.40;99.90;;;;;;5043038;28;20045;-85
2021/09/03 00:51:40;;;;;;;7.43;4.70;;;14.40;99.90;;;;;;5033796;28;20056;-85
2021/09/03 00:54:07;;;;;;;7.47;4.97;;;14.40;99.90;;;;;;5043622;28;20055;-85
2021/09/03 00:56:35;;;;;;;9.35;5.18;;;14.30;99.90;;;;;;5033729;28;20045;-85
2021/09/03 00:59:03;;;;;;;6.50;4.25;;;14.30;99.90;;;;;;5036310;28;20055;-85
2021/09/03 01:01:31;;;;;;;8.90;4.82;;;14.30;99.90;;;;;;5053305;28;20044;-85
2021/09/03 01:03:58;;;;;;;7.78;4.72;;;14.30;99.90;;;;;;5043977;28;20067;-85
2021/09/03 01:06:25;;;;;;;7.03;4.72;;;14.20;99.90;;;;;;5033400;28;20049;-85
2021/09/03 01:08:53;;;;;;;8.80;5.57;;;14.20;99.90;;;;;;5033520;28;20055;-85
2021/09/03 01:11:20;;;;;;;9.00;5.18;;;14.10;99.90;;;;;;5033516;28;20053;-84
2021/09/03 01:13:47;;;;;;;7.60;4.85;;;14.00;99.90;;;;;;5044644;28;20512;-84
2021/09/03 01:16:14;;;;;;;7.80;4.88;;;13.90;99.90;;;;;;5053223;28;20128;-84
2021/09/03 01:18:42;;;;;;;8.32;4.35;;;13.90;99.90;;;;;;5050323;28;20059;-84
2021/09/03 01:21:09;;;;;;;7.35;4.50;;;13.90;99.90;;;;;;5033674;28;20049;-85
2021/09/03 01:23:38;;;;;;;7.95;4.93;;;13.90;99.90;;;;;;5042858;28;20131;-85
2021/09/03 01:26:06;;;;;;;6.60;4.40;;;13.90;99.90;;;;;;5040803;28;20036;-84
2021/09/03 01:28:34;;;;;;;8.45;5.05;;;13.90;99.90;;;;;;5053208;28;20053;-84
2021/09/03 01:31:01;;;;;;;8.48;4.93;;;13.90;99.90;;;;;;5052989;28;20124;-84
2021/09/03 01:33:28;;;;;;;8.45;4.80;;;13.90;99.90;;;;;;5049505;28;20156;-85
2021/09/03 01:35:55;;;;;;;8.10;5.30;;;13.90;99.90;;;;;;5053030;28;20123;-84
2021/09/03 01:38:22;;;;;;;7.72;4.75;;;13.90;99.90;;;;;;5033383;28;20410;-84
2021/09/03 01:40:51;;;;;;;8.85;4.95;;;13.90;99.90;;;;;;5033114;28;20145;-85
2021/09/03 01:43:21;;;;;;;7.72;5.13;;;13.80;99.90;;;;;;5036524;28;20398;-84
2021/09/03 01:45:48;;;;;;;8.48;5.28;;;13.80;99.90;;;;;;5045332;28;20136;-84
2021/09/03 01:48:15;;;;;;;7.55;4.78;;;13.80;99.90;;;;;;5032977;28;20050;-85
2021/09/03 01:50:42;;;;;;;7.43;4.75;;;13.70;99.90;;;;;;5033110;28;20056;-84
2021/09/03 01:53:09;;;;;;;8.65;5.10;;;13.70;99.90;;;;;;5035729;28;20051;-85
2021/09/03 01:55:36;;;;;;;7.90;4.88;;;13.70;99.90;;;;;;5043266;28;20047;-83
2021/09/03 01:58:04;;;;;;;8.65;5.22;;;13.70;99.90;;;;;;5036799;28;20406;-84
2021/09/03 02:00:32;;;;;;;7.43;4.57;;;13.70;99.90;;;;;;5036727;28;20388;-84
2021/09/03 02:02:59;;;;;;;6.43;4.43;;;13.60;99.90;;;;;;5036924;28;20046;-84
2021/09/03 02:05:26;;;;;;;7.53;4.97;;;13.60;99.90;;;;;;5056944;28;20041;-84
2021/09/03 02:07:53;;;;;;;7.40;5.00;;;13.50;99.90;;;;;;5044261;28;20402;-85
2021/09/03 02:10:20;;;;;;;7.13;4.20;;;13.50;99.90;;;;;;5036772;28;20411;-85
2021/09/03 02:12:47;;;;;;;7.45;4.78;;;13.50;99.90;;;;;;5036530;28;20061;-84
2021/09/03 02:15:15;;;;;;;6.70;4.53;;;13.40;99.90;;;;;;5054965;28;20049;-84
2021/09/03 02:17:42;;;;;;;7.32;4.60;;;13.40;99.90;;;;;;5056908;28;20053;-85
2021/09/03 02:20:10;;;;;;;7.10;4.63;;;13.40;99.90;;;;;;5056564;28;20040;-85
2021/09/03 02:22:37;;;;;;;8.90;5.13;;;13.40;99.90;;;;;;5044652;28;20053;-84
2021/09/03 02:25:05;;;;;;;7.13;4.55;;;13.40;99.90;;;;;;5050608;28;20037;-84
2021/09/03 02:27:33;;;;;;;7.57;4.75;;;13.40;99.90;;;;;;5051647;28;20376;-84
2021/09/03 02:30:00;;;;;;;7.65;4.78;;;13.30;99.90;;;;;;5036478;28;20041;-85
2021/09/03 02:32:28;;;;;;;8.38;5.25;;;13.30;99.90;;;;;;5036360;28;20054;-86
2021/09/03 02:34:55;;;;;;;7.82;4.82;;;13.30;99.90;;;;;;5051746;28;20048;-85
2021/09/03 02:37:22;;;;;;;9.68;4.95;;;13.30;99.90;;;;;;5056223;28;20045;-85
2021/09/03 02:39:49;;;;;;;7.50;4.90;;;13.20;99.90;;;;;;5054065;28;20119;-85
2021/09/03 02:42:16;;;;;;;9.00;4.82;;;13.20;99.90;;;;;;5056074;28;20574;-85
2021/09/03 02:44:44;;;;;;;10.75;4.88;;;13.10;99.90;;;;;;5042264;28;20042;-84
2021/09/03 02:47:11;;;;;;;7.72;4.43;;;13.10;99.90;;;;;;5036185;28;20054;-85
2021/09/03 02:49:39;;;;;;;8.93;4.93;;;13.10;99.90;;;;;;5035973;28;20491;-85
2021/09/03 02:52:07;;;;;;;7.63;4.95;;;13.10;99.90;;;;;;5042390;28;20045;-85
2021/09/03 02:54:34;;;;;;;8.48;4.63;;;13.10;99.90;;;;;;5045543;28;20047;-85
2021/09/03 02:57:01;;;;;;;8.70;4.78;;;13.00;99.90;;;;;;5035751;28;20388;-85
2021/09/03 02:59:28;;;;;;;7.60;4.90;;;13.00;99.90;;;;;;5035906;28;20055;-85
2021/09/03 03:01:55;;;;;;;7.45;4.60;;;13.00;99.90;;;;;;5034947;28;20046;-85
2021/09/03 03:04:22;;;;;;;7.18;4.80;;;13.00;99.90;;;;;;5050397;28;20059;-85
2021/09/03 03:06:50;;;;;;;8.13;4.15;;;13.00;99.90;;;;;;5052392;28;20067;-84
2021/09/03 03:09:18;;;;;;;7.13;4.97;;;13.00;99.90;;;;;;5052311;28;20417;-84
2021/09/03 03:11:45;;;;;;;6.40;4.50;;;12.90;99.90;;;;;;5052904;28;20045;-84
2021/09/03 03:14:16;;;;;;;7.75;4.80;;;12.90;99.90;;;;;;5044380;28;20129;-85
2021/09/03 03:16:43;;;;;;;8.07;4.60;;;12.90;99.90;;;;;;5033365;28;20479;-85
2021/09/03 03:19:10;;;;;;;7.38;4.88;;;12.80;99.90;;;;;;5032988;28;20056;-85
2021/09/03 03:21:38;;;;;;;10.27;5.13;;;12.70;99.90;;;;;;5048831;28;20045;-85
2021/09/03 03:24:06;;;;;;;7.20;4.45;;;12.60;99.90;;;;;;5045075;28;20494;-87
2021/09/03 03:26:33;;;;;;;9.75;5.20;;;12.50;99.90;;;;;;5052034;28;20053;-85
2021/09/03 03:29:00;;;;;;;8.93;5.22;;;12.40;99.90;;;;;;5052840;28;20055;-85
2021/09/03 03:31:31;;;;;;;8.68;4.90;;;12.40;99.90;;;;;;5052695;28;20473;-85
2021/09/03 03:33:58;;;;;;;9.18;4.63;;;12.40;99.90;;;;;;5052311;28;20128;-84
2021/09/03 03:36:25;;;;;;;8.23;5.65;;;12.40;99.90;;;;;;5052308;28;20148;-83
2021/09/03 03:38:53;;;;;;;8.55;5.22;;;12.40;99.90;;;;;;5052530;28;20049;-84
2021/09/03 03:41:22;;;;;;;8.00;4.97;;;12.40;99.90;;;;;;5052577;28;20049;-84
2021/09/03 03:43:49;;;;;;;9.38;5.18;;;12.40;99.90;;;;;;5050578;28;20045;-84
2021/09/03 03:46:16;;;;;;;8.38;5.32;;;12.50;99.90;;;;;;5052261;28;20051;-84
2021/09/03 03:48:43;;;;;;;7.68;4.95;;;12.50;99.90;;;;;;5045890;28;20045;-83
2021/09/03 03:51:10;;;;;;;7.65;4.93;;;12.50;99.90;;;;;;5032843;28;20402;-85
2021/09/03 03:53:37;;;;;;;8.07;5.10;;;12.40;99.90;;;;;;5038978;28;20152;-84
2021/09/03 03:56:05;;;;;;;7.90;5.22;;;12.50;99.90;;;;;;5035976;28;20402;-85
2021/09/03 03:58:33;;;;;;;7.45;5.03;;;12.50;99.90;;;;;;5032138;28;20396;-86
2021/09/03 04:01:00;;;;;;;8.65;5.18;;;12.50;99.90;;;;;;5032765;28;20172;-86
2021/09/03 04:03:27;;;;;;;10.38;5.80;;;12.50;99.90;;;;;;5039515;28;20053;-85
2021/09/03 04:05:54;;;;;;;8.90;5.60;;;12.40;99.90;;;;;;5054785;28;20051;-85
2021/09/03 04:08:21;;;;;;;8.90;5.30;;;12.40;99.90;;;;;;5054455;28;20055;-86
2021/09/03 04:10:48;;;;;;;9.60;5.30;;;12.40;99.90;;;;;;5054457;28;20073;-85
2021/09/03 04:13:15;;;;;;;8.80;5.90;;;12.40;99.90;;;;;;5050862;28;20479;-85
2021/09/03 04:15:44;;;;;;;9.80;5.30;;;12.40;99.90;;;;;;5034390;28;20052;-87
2021/09/03 04:18:11;;;;;;;8.00;5.32;;;12.40;99.90;;;;;;5049261;28;20140;-86
2021/09/03 04:20:38;;;;;;;9.68;5.70;;;12.30;99.90;;;;;;5054373;28;20141;-86
2021/09/03 04:23:07;;;;;;;8.13;5.25;;;12.30;99.90;;;;;;5039094;28;20136;-86
2021/09/03 04:25:34;;;;;;;7.75;4.80;;;12.30;99.90;;;;;;5044990;28;20040;-83
2021/09/03 04:28:01;;;;;;;7.90;4.95;;;12.20;99.90;;;;;;5053867;28;20049;-83
2021/09/03 04:30:29;;;;;;;9.13;5.68;;;12.20;99.90;;;;;;5051303;28;20045;-83
2021/09/03 04:32:57;;;;;;;8.63;5.07;;;12.20;99.90;;;;;;5053894;28;20055;-83
2021/09/03 04:35:25;;;;;;;8.68;5.80;;;12.10;99.90;;;;;;5053878;28;20147;-84
2021/09/03 04:37:52;;;;;;;11.73;6.38;;;12.10;99.90;;;;;;5053688;28;20053;-84
2021/09/03 04:40:21;;;;;;;8.60;5.80;;;12.10;99.90;;;;;;5054189;28;20155;-84
2021/09/03 04:42:48;;;;;;;9.77;5.60;;;12.10;99.90;;;;;;5053641;28;20051;-83
2021/09/03 04:45:17;;;;;;;9.63;6.18;;;12.10;99.90;;;;;;5053610;28;20045;-83
2021/09/03 04:47:44;;;;;;;9.50;6.13;;;12.10;99.90;;;;;;5053496;28;20487;-83
2021/09/03 04:50:14;;;;;;;11.25;6.00;;;12.10;99.90;;;;;;5053585;28;20147;-83
2021/09/03 04:52:43;;;;;;;9.82;6.13;;;12.10;99.90;;;;;;5053646;28;20622;-83
2021/09/03 04:55:11;;;;;;;9.18;5.72;;;12.10;99.90;;;;;;5053381;28;20068;-84
2021/09/03 04:57:43;;;;;;;10.35;5.68;;;12.20;99.90;;;;;;5053357;28;20056;-83
2021/09/03 05:00:15;;;;;;;8.35;5.40;;;12.20;99.90;;;;;;5053478;28;20067;-84
2021/09/03 05:02:42;;;;;;;9.63;5.90;;;12.20;99.90;;;;;;5053438;28;20128;-84
2021/09/03 05:05:12;;;;;;;8.38;5.20;;;12.20;99.90;;;;;;5053442;28;20045;-84
2021/09/03 05:07:39;;;;;;;7.90;5.32;;;12.20;99.90;;;;;;5052732;28;20132;-83
2021/09/03 05:10:09;;;;;;;8.40;5.45;;;12.10;99.90;;;;;;5053098;28;20048;-83
2021/09/03 05:12:37;;;;;;;8.38;5.10;;;12.10;99.90;;;;;;5053253;28;20140;-83
2021/09/03 05:15:09;;;;;;;9.65;5.47;;;12.10;99.90;;;;;;5053361;28;20080;-84
2021/09/03 05:17:36;;;;;;;8.60;5.10;;;12.10;99.90;;;;;;5053290;28;20052;-83
2021/09/03 05:20:06;;;;;;;8.40;5.45;;;12.10;99.90;;;;;;5053126;28;20146;-84
2021/09/03 05:22:35;;;;;;;8.43;5.43;;;12.10;99.90;;;;;;5052942;28;20045;-84
2021/09/03 05:25:03;;;;;;;9.27;5.05;;;12.10;99.90;;;;;;5052926;28;20048;-83
2021/09/03 05:27:31;;;;;;;7.57;4.60;;;12.10;99.90;;;;;;5053115;28;20044;-84
2021/09/03 05:29:58;;;;;;;7.82;5.10;;;12.10;99.90;;;;;;5052387;28;20114;-84
2021/09/03 05:32:25;;;;;;;8.10;5.35;;;12.10;99.90;;;;;;5052985;28;20051;-84
2021/09/03 05:34:52;;;;;;;8.38;5.10;;;12.10;99.90;;;;;;5052757;28;20049;-83
2021/09/03 05:37:19;;;;;;;8.38;5.40;;;12.20;99.90;;;;;;5053109;28;20045;-83
2021/09/03 05:39:47;;;;;;;10.45;5.20;;;12.10;99.90;;;;;;5052707;28;20057;-83
2021/09/03 05:42:15;;;;;;;8.68;5.03;;;12.10;99.90;;;;;;5053054;28;20142;-83
2021/09/03 05:44:42;;;;;;;8.30;5.47;;;12.10;99.90;;;;;;5052748;28;20060;-83
2021/09/03 05:47:09;;;;;;;8.50;5.28;;;12.10;99.90;;;;;;5052742;28;20049;-83
2021/09/03 05:49:36;;;;;;;8.52;5.30;;;12.10;99.90;;;;;;5052582;28;20059;-82
2021/09/03 05:52:03;;;;;;;7.38;4.82;;;12.20;99.90;;;;;;5052701;28;20045;-82
2021/09/03 05:54:30;;;;;;;8.75;5.32;;;12.10;99.90;;;;;;5052810;28;20045;-83
2021/09/03 05:56:59;;;;;;;8.43;4.93;;;12.10;99.90;;;;;;5052948;28;20471;-83
2021/09/03 05:59:26;;;;;;;8.60;5.20;;;12.10;99.90;;;;;;5052709;28;20049;-83
2021/09/03 06:01:53;;;;;;;8.10;5.10;;;12.00;99.90;;;;;;5052659;28;20051;-82
2021/09/03 06:04:20;;;;;;;7.93;4.68;;;12.00;99.90;;;;;;5052433;28;20071;-82
2021/09/03 06:06:47;;;;;;;8.25;5.07;;;12.00;99.90;;;;;;5052727;28;20051;-82
2021/09/03 06:09:14;;;;;;;8.10;4.88;;;12.00;99.90;;;;;;5052458;28;20495;-82
2021/09/03 06:11:41;;;;;;;9.93;5.38;;;12.00;99.90;;;;;;5052443;28;20505;-82
2021/09/03 06:14:09;;;;;;;8.70;5.15;;;12.10;99.90;;;;;;5052494;28;20045;-82
2021/09/03 06:16:36;;;;;;;8.77;5.20;;;12.10;99.90;;;;;;5052461;28;20045;-82
2021/09/03 06:19:04;;;;;;;8.15;4.85;;;12.10;99.90;;;;;;5052673;28;20045;-82
2021/09/03 06:21:31;;;;;;;7.65;4.93;;;12.20;99.90;;;;;;5052323;28;20132;-83
2021/09/03 06:23:58;;;;;;;8.40;5.40;;;12.30;99.90;;;;;;5052547;28;20051;-82
2021/09/03 06:26:25;;;;;;;9.60;6.00;;;12.30;99.90;;;;;;5052403;28;20080;-82
2021/09/03 06:28:52;;;;;;;9.27;5.82;;;12.30;99.90;;;;;;5052361;28;20127;-83
2021/09/03 06:31:21;;;;;;;9.23;6.20;;;12.40;99.90;;;;;;5052312;28;20049;-83
2021/09/03 06:33:48;;;;;;;9.15;5.45;;;12.30;99.90;;;;;;5052489;28;20414;-82
2021/09/03 06:36:15;;;;;;;7.82;5.28;;;12.30;99.90;;;;;;5052493;28;20045;-82
2021/09/03 06:38:42;;;;;;;8.40;5.90;;;12.30;99.90;;;;;;5051956;28;20420;-82
2021/09/03 06:41:09;;;;;;;10.38;6.05;;;12.40;99.90;;;;;;5054046;28;20136;-82
2021/09/03 06:43:36;;;;;;;9.70;6.00;;;12.40;99.90;;;;;;5055998;28;20125;-82
2021/09/03 06:46:03;;;;;;;10.68;6.22;;;12.40;99.90;;;;;;5056130;28;20049;-83
2021/09/03 06:48:31;;;;;;;9.68;5.93;;;12.50;99.90;;;;;;5056002;28;20049;-82
2021/09/03 06:50:58;;;;;;;10.02;6.35;;;12.60;99.90;;;;;;5055982;28;20055;-83
2021/09/03 06:53:26;;;;;;;9.95;6.60;;;12.70;99.90;;;;;;5055985;28;20045;-83
2021/09/03 06:55:53;;;;;;;9.20;6.32;;;12.70;99.90;;;;;;5055829;28;20049;-83
2021/09/03 06:58:20;;;;;;;10.43;6.07;;;12.70;99.90;;;;;;5055636;28;20052;-82
2021/09/03 07:00:46;;;;;;;10.15;6.35;;;12.80;99.90;;;;;;5055747;28;20055;-83
2021/09/03 07:03:14;;;;;;;9.35;5.97;;;12.90;99.90;;;;;;5055479;28;20049;-82
2021/09/03 07:05:42;;;;;;;9.80;5.88;;;13.00;99.90;;;;;;5055673;28;20067;-83
2021/09/03 07:08:09;;;;;;;10.93;5.78;;;13.00;99.90;;;;;;5055482;28;20045;-83
2021/09/03 07:10:36;;;;;;;8.77;5.63;;;13.10;99.90;;;;;;5055920;28;20075;-82
2021/09/03 07:13:03;;;;;;;9.15;6.55;;;13.20;99.90;;;;;;5055251;28;20041;-82
2021/09/03 07:15:30;;;;;;;10.77;6.47;;;13.30;99.90;;;;;;5055585;28;20041;-82
2021/09/03 07:17:57;;;;;;;9.50;6.80;;;13.40;99.90;;;;;;5055469;28;20040;-83
2021/09/03 07:20:24;;;;;;;10.88;6.60;;;13.50;99.90;;;;;;5055248;28;20136;-83
2021/09/03 07:22:53;;;;;;;9.50;6.22;;;13.60;99.90;;;;;;5055445;28;20158;-83
2021/09/03 07:25:20;;;;;;;9.77;6.50;;;13.60;99.90;;;;;;5055135;28;20051;-83
2021/09/03 07:27:47;;;;;;;11.88;7.13;;;13.70;99.90;;;;;;5055449;28;20055;-82
2021/09/03 07:30:14;;;;;;;10.35;6.97;;;13.80;99.90;;;;;;5054944;28;20076;-83
2021/09/03 07:32:43;;;;;;;10.73;7.30;;;13.80;99.90;;;;;;5054976;28;20520;-82
2021/09/03 07:35:12;;;;;;;10.75;6.88;;;13.90;99.90;;;;;;5055049;28;20048;-82
2021/09/03 07:37:40;;;;;;;10.70;6.78;;;13.90;99.90;;;;;;5054714;28;20524;-81
2021/09/03 07:40:10;;;;;;;10.05;6.72;;;14.00;99.90;;;;;;5054842;28;20067;-82
2021/09/03 07:42:38;;;;;;;10.25;7.00;;;14.10;99.90;;;;;;5055049;28;20465;-82
2021/09/03 07:45:08;;;;;;;10.63;7.07;;;14.10;99.90;;;;;;5054799;28;20438;-82
2021/09/03 07:47:35;;;;;;;10.38;6.70;;;14.20;99.90;;;;;;5055293;28;20417;-83
2021/09/03 07:50:02;;;;;;;10.52;6.97;;;14.20;99.90;;;;;;5054611;28;20049;-82
2021/09/03 07:52:29;;;;;;;11.20;6.88;;;14.30;99.90;;;;;;5053993;28;20334;-83
2021/09/03 07:54:56;;;;;;;9.90;6.75;;;14.30;99.90;;;;;;5054794;28;20048;-82
2021/09/03 07:57:25;;;;;;;10.32;6.35;;;14.40;99.90;;;;;;5054649;28;20056;-83
2021/09/03 07:59:52;;;;;;;9.48;5.70;;;14.40;99.90;;;;;;5054536;28;20052;-82
2021/09/03 08:02:19;;;;;;;8.55;5.68;;;14.50;99.90;;;;;;5054602;28;20402;-82
2021/09/03 08:04:46;;;;;;;8.63;5.72;;;14.50;99.90;;;;;;5054443;28;20041;-83
2021/09/03 08:07:13;;;;;;;10.00;6.80;;;14.60;99.90;;;;;;5054329;28;20041;-82
2021/09/03 08:09:40;;;;;;;10.02;6.65;;;14.70;99.90;;;;;;5054440;28;20402;-82
2021/09/03 08:12:08;;;;;;;11.35;6.70;;;14.80;99.90;;;;;;5054329;28;20045;-83
2021/09/03 08:14:36;;;;;;;8.77;5.63;;;14.80;99.90;;;;;;5054205;28;20127;-83
2021/09/03 08:17:04;;;;;;;10.60;6.50;;;14.90;99.90;;;;;;5054292;28;20445;-82
2021/09/03 08:19:31;;;;;;;9.18;5.80;;;15.00;99.90;;;;;;5054068;28;20053;-83
2021/09/03 08:21:58;;;;;;;8.63;5.35;;;15.10;99.90;;;;;;5054362;28;20059;-83
2021/09/03 08:24:25;;;;;;;7.53;5.00;;;15.10;99.90;;;;;;5054144;28;20413;-83
2021/09/03 08:26:52;;;;;;;8.95;5.25;;;15.20;99.90;;;;;;5053978;28;20459;-83
2021/09/03 08:29:19;;;;;;;8.32;5.25;;;15.20;99.90;;;;;;5053982;28;20040;-83
2021/09/03 08:31:48;;;;;;;10.82;7.05;;;15.30;99.90;;;;;;5053907;28;20501;-83
2021/09/03 08:34:16;;;;;;;9.25;6.00;;;15.40;99.90;;;;;;5053829;28;20047;-82
2021/09/03 08:36:43;;;;;;;7.95;5.10;;;15.40;99.90;;;;;;5053958;28;20044;-82
2021/09/03 08:39:10;;;;;;;8.48;5.60;;;15.50;99.90;;;;;;5053593;28;20057;-82
2021/09/03 08:41:38;;;;;;;8.70;5.28;;;15.60;99.90;;;;;;5053383;28;20044;-82
2021/09/03 08:44:06;;;;;;;7.90;5.18;;;15.60;99.90;;;;;;5033375;28;20124;-82
2021/09/03 08:46:34;;;;;;;9.57;5.38;;;15.70;99.90;;;;;;5033653;28;20049;-84
2021/09/03 08:49:04;;;;;;;9.07;5.43;;;15.80;99.90;;;;;;5033572;28;20128;-85
2021/09/03 08:51:32;;;;;;;7.47;5.10;;;15.90;99.90;;;;;;5033924;28;20060;-84
2021/09/03 08:53:59;;;;;;;8.80;5.88;;;15.90;99.90;;;;;;5033678;28;20436;-84
2021/09/03 08:56:26;;;;;;;8.77;5.55;;;16.00;99.90;;;;;;5034668;28;20478;-84
2021/09/03 08:58:53;;;;;;;8.20;5.10;;;16.10;99.90;;;;;;5049948;28;20051;-85
2021/09/03 09:01:20;;;;;;;8.10;5.40;;;16.10;99.90;;;;;;5051580;28;20059;-85
2021/09/03 09:03:52;;;;;;;10.93;6.40;;;16.20;99.90;;;;;;5041544;28;20040;-85
2021/09/03 09:06:22;;;;;;;7.93;5.43;;;16.20;99.90;;;;;;5048622;28;20048;-85
2021/09/03 09:08:56;;;;;;;9.23;5.95;;;16.30;99.90;;;;;;5037367;28;20487;-85
2021/09/03 09:11:27;;;;;;;9.38;6.00;;;16.30;99.90;;;;;;5043190;28;20057;-84
2021/09/03 09:13:59;;;;;;;8.30;5.30;;;16.40;99.90;;;;;;5043261;28;20045;-84
2021/09/03 09:16:30;;;;;;;8.55;5.60;;;16.40;99.90;;;;;;5034215;28;20403;-83
2021/09/03 09:18:58;;;;;;;8.38;5.32;;;16.50;99.90;;;;;;5037002;28;20045;-85
2021/09/03 09:21:29;;;;;;;8.48;5.53;;;16.60;99.90;;;;;;5043173;28;20045;-83
2021/09/03 09:23:59;;;;;;;7.47;4.82;;;16.60;99.90;;;;;;5053264;28;20045;-84
2021/09/03 09:26:29;;;;;;;8.65;5.28;;;16.70;99.90;;;;;;5035427;28;20049;-85
2021/09/03 09:28:57;;;;;;;9.15;4.80;;;16.70;99.90;;;;;;5044699;28;20044;-84
2021/09/03 09:31:38;;;;;;;7.32;4.93;;;16.80;99.90;;;;;;5050441;28;20053;-85
2021/09/03 09:34:20;;;;;;;8.60;5.25;;;16.90;99.90;;;;;;5050287;28;20486;-85
2021/09/03 09:36:51;;;;;;;8.43;5.10;;;17.00;99.90;;;;;;5043455;28;20051;-84
2021/09/03 09:39:19;;;;;;;7.85;5.40;;;17.10;99.90;;;;;;5036192;28;20049;-83
2021/09/03 09:41:57;;;;;;;9.60;6.50;;;17.10;99.90;;;;;;5038217;28;20045;-83
2021/09/03 09:44:29;;;;;;;10.23;5.97;;;17.10;99.90;;;;;;5047735;28;20051;-83
2021/09/03 09:47:05;;;;;;;9.05;5.30;;;17.20;99.90;;;;;;5040170;28;20048;-81
2021/09/03 09:49:33;;;;;;;8.70;5.40;;;17.30;99.90;;;;;;5041122;28;20049;-89
2021/09/03 09:52:02;;;;;;;7.50;5.03;;;17.30;99.90;;;;;;5037634;28;20049;-89
2021/09/03 09:54:29;;;;;;;8.60;4.70;;;17.40;99.90;;;;;;5041587;28;20478;-86
2021/09/03 09:57:00;;;;;;;8.55;4.90;;;17.40;99.90;;;;;;5035901;28;20403;-89
2021/09/03 09:59:28;;;;;;;9.98;6.32;;;17.50;99.90;;;;;;5042917;28;20120;-88
2021/09/03 10:01:57;;;;;;;9.95;6.40;;;17.60;99.90;;;;;;5042959;28;20048;-89
2021/09/03 10:04:27;;;;;;;9.38;6.53;;;17.60;99.90;;;;;;5040898;28;20107;-90
2021/09/03 10:06:59;;;;;;;9.38;5.40;;;17.70;99.90;;;;;;5045368;28;20129;-89
2021/09/03 10:09:32;;;;;;;8.70;5.32;;;17.70;99.90;;;;;;5048960;28;20044;-88
2021/09/03 10:12:00;;;;;;;6.55;4.28;;;17.80;99.90;;;;;;5050398;28;20044;-89
2021/09/03 10:14:31;;;;;;;6.93;4.70;;;17.90;99.90;;;;;;5042041;28;20051;-86
2021/09/03 10:17:00;;;;;;;7.57;5.13;;;18.00;99.90;;;;;;5045576;28;20080;-88
2021/09/03 10:19:30;;;;;;;9.07;5.72;;;18.00;99.90;;;;;;5045705;28;20480;-87
2021/09/03 10:22:02;;;;;;;9.77;5.68;;;18.10;99.90;;;;;;5044190;28;20447;-87
2021/09/03 10:24:31;;;;;;;8.65;5.13;;;18.10;99.90;;;;;;5052241;28;20067;-87
2021/09/03 10:27:00;;;;;;;8.10;5.43;;;18.20;99.90;;;;;;5052032;28;20127;-85
2021/09/03 10:29:32;;;;;;;8.40;5.18;;;18.30;99.90;;;;;;5045467;28;20047;-86
2021/09/03 10:32:25;;;;;;;7.57;5.10;;;18.40;99.90;;;;;;5054375;28;20053;-87
2021/09/03 10:35:14;;;;;;;10.48;6.22;;;18.40;99.90;;;;;;5054229;28;20068;-85
2021/09/03 10:37:41;;;;;;;9.63;6.47;;;18.50;99.80;;;;;;5053964;28;20124;-87
2021/09/03 10:40:15;;;;;;;9.07;5.25;;;18.50;99.70;;;;;;5053911;28;20413;-86
2021/09/03 10:42:58;;;;;;;;;;;18.60;99.80;;;;;;5054193;28;20127;-86
2021/09/03 10:45:31;;;;;;;10.40;5.17;;;18.70;99.70;;;;;;5054102;28;20333;-86
2021/09/03 10:48:10;;;;;;;9.80;6.30;;;18.70;99.60;;;;;;5054154;28;20053;-85
2021/09/03 10:50:43;;;;;;;9.40;5.68;;;18.80;99.50;;;;;;5051852;28;20407;-85
2021/09/03 10:53:27;;;;;;;8.75;5.45;;;18.90;99.40;;;;;;5053361;28;20045;-85
2021/09/03 10:56:13;;;;;;;8.20;4.75;;;18.90;99.40;;;;;;5053339;28;20053;-85
2021/09/03 10:58:53;;;;;;;6.72;4.60;;;19.00;99.30;;;;;;5053448;28;20056;-86
2021/09/03 11:02:03;;;;;;;7.47;4.47;;;19.10;99.30;;;;;;5053997;28;20410;-85
2021/09/03 11:04:30;;;;;;;7.50;4.55;;;19.20;99.10;;;;;;5055779;28;20051;-86
2021/09/03 11:07:07;;;;;;;7.25;4.20;;;19.30;99.10;;;;;;5053700;28;20041;-86
2021/09/03 11:09:34;;;;;;;6.45;4.30;;;19.40;99.20;;;;;;5055683;28;20049;-86
2021/09/03 11:12:09;;;;;;;7.43;4.30;;;19.40;99.20;;;;;;5055351;28;20140;-86
2021/09/03 11:14:38;;;;;;;7.53;5.10;;;19.50;99.30;;;;;;5055836;28;20124;-85
2021/09/03 11:17:07;;;;;;;7.22;4.70;;;19.60;98.90;;;;;;5055749;28;20453;-84
2021/09/03 11:19:36;;;;;;;7.15;4.80;;;19.60;98.70;;;;;;5053857;28;20139;-86
2021/09/03 11:22:06;;;;;;;7.30;5.00;;;19.70;98.60;;;;;;5055399;28;20136;-87
2021/09/03 11:24:36;;;;;;;8.55;4.85;;;19.70;98.60;;;;;;5055162;28;20045;-85
2021/09/03 11:27:07;;;;;;;8.80;5.50;;;19.80;98.70;;;;;;5054120;28;20041;-87
2021/09/03 11:29:41;;;;;;;8.25;5.47;;;19.90;98.40;;;;;;5055154;28;20091;-85
2021/09/03 11:32:11;;;;;;;7.13;4.60;;;19.90;98.10;;;;;;5055190;28;20053;-86
2021/09/03 11:35:00;;;;;;;8.30;5.40;;;20.00;98.10;;;;;;5053726;28;20041;-86
2021/09/03 11:37:37;;;;;;;6.97;4.50;;;20.10;98.00;;;;;;5054882;28;20128;-85
2021/09/03 11:40:18;;;;;;;7.93;4.63;;;20.20;97.70;;;;;;5055113;28;20052;-85
2021/09/03 11:42:49;;;;;;;6.85;4.40;;;20.30;97.90;;;;;;5055009;28;20135;-85
2021/09/03 11:45:19;;;;;;;7.88;4.78;;;20.30;97.90;;;;;;5054909;28;20059;-86
2021/09/03 11:47:54;;;;;;;7.43;4.55;;;20.40;97.60;;;;;;5054916;28;20508;-85
2021/09/03 11:50:28;;;;;;;7.50;4.50;;;20.50;97.40;;;;;;5053137;28;20048;-86
2021/09/03 11:52:57;;;;;;;7.25;4.25;;;20.70;97.50;;;;;;5050630;28;20045;-85
2021/09/03 11:55:24;;;;;;;5.88;3.92;;;20.80;97.20;;;;;;5045306;28;20047;-82
2021/09/03 11:58:05;;;;;;;7.28;4.25;;;20.90;97.00;;;;;;5045631;28;20051;-81
2021/09/03 12:00:34;;;;;;;10.10;5.18;;;21.00;96.80;;;;;;5042267;28;20041;-80
2021/09/03 12:03:04;;;;;;;6.78;4.45;;;21.10;96.40;;;;;;5041127;28;20142;-90
2021/09/03 12:05:32;;;;;;;6.55;4.30;;;21.20;96.20;;;;;;5042147;28;20510;-91
2021/09/03 12:08:10;;;;;;;7.15;4.40;;;21.40;96.10;;;;;;5046085;28;20568;-84
2021/09/03 12:10:44;;;;;;;7.10;4.35;;;21.50;95.60;;;;;;5034281;28;20487;-81
2021/09/03 12:13:16;;;;;;;6.47;3.67;;;21.60;95.40;;;;;;5040892;28;20120;-81
2021/09/03 12:15:46;;;;;;;5.32;3.50;;;21.70;95.20;;;;;;5046336;28;20498;-81
2021/09/03 12:18:23;;;;;;;6.05;3.75;;;21.80;95.10;;;;;;5036925;28;20049;-81
2021/09/03 12:20:55;;;;;;;6.60;4.20;;;21.90;94.70;;;;;;5034505;28;20061;-81
2021/09/03 12:23:22;;;;;;;5.60;3.58;;;21.90;94.20;;;;;;5037460;28;20124;-80
2021/09/03 12:25:49;;;;;;;5.07;3.47;;;22.00;93.90;;;;;;5041472;28;20442;-83
2021/09/03 12:28:20;;;;;;;5.65;3.03;;;22.00;93.90;;;;;;5047034;28;20486;-84
2021/09/03 12:30:51;;;;;;;5.55;3.47;;;22.10;93.60;;;;;;5041583;28;20064;-84
2021/09/03 12:33:26;;;;;;;4.85;2.83;;;22.20;93.70;;;;;;5048328;28;20051;-84
2021/09/03 12:35:56;;;;;;;5.53;2.55;;;22.40;93.70;;;;;;5033447;28;20041;-84
2021/09/03 12:38:36;;;;;;;4.90;2.78;;;22.50;93.60;;;;;;5040670;28;20053;-82
2021/09/03 12:41:09;;;;;;;4.85;2.95;;;22.70;93.40;;;;;;5039575;28;20041;-83
2021/09/03 12:43:37;;;;;;;5.47;3.45;;;22.80;93.20;;;;;;5042460;28;20049;-83
2021/09/03 12:46:11;;;;;;;5.10;3.25;;;22.90;92.90;;;;;;5040195;28;20520;-83
2021/09/03 12:48:38;;;;;;;6.07;3.88;;;23.10;93.00;;;;;;5033816;28;20406;-83
2021/09/03 12:51:06;;;;;;;7.32;4.28;;;23.20;92.30;;;;;;5037204;28;20049;-82
2021/09/03 12:53:33;;;;;;;5.28;3.40;;;23.20;91.80;;;;;;5040975;28;20037;-83